Vernal, Utah
Current Conditions -  °F | °C
As of 4:53 AM on Monday 22 Dec 2014 (Local Time) from KVEL Reporting Station
Overcast Overcast  
Wind Chill: 31°   Ceiling: 5000
Heat Index: 35°   Visibility: 10mi
Dew Point: 30°   Wind: 5mph
Humidity: 82%   Direction: 90°E
Pressure: 29.86"   Gusts: NA
Location:  40.46°N, 109.52°W
Report Text: KVEL 221153Z AUTO 09004KT 10SM OVC050 02/M01 A2986 RMK AO2 SLP119 T00171011 10033 20000 58003
Loading
Personal Weather Stations






























Interactive Weather Map New forecast layout! Learn more

10-Day Weather Forecast

Advertisements
Track Severe Weather on mobile